createdAt,value
2022-08-14T00:01:10.416Z,100678.63
2022-08-14T00:03:40.635Z,100673.44
2022-08-14T00:06:25.701Z,100684.81
2022-08-14T00:08:59.289Z,100678.28
2022-08-14T00:11:28.788Z,100679.03
2022-08-14T00:13:59.295Z,100674.94
2022-08-14T00:16:41.499Z,100667.72
2022-08-14T00:19:19.474Z,100676.50
2022-08-14T00:21:52.266Z,100673.72
2022-08-14T00:24:28.268Z,100666.25
2022-08-14T00:27:02.124Z,100658.88
2022-08-14T00:29:39.951Z,100669.50
2022-08-14T00:32:51.978Z,100662.31
2022-08-14T00:34:56.406Z,100656.41
2022-08-14T00:37:23.271Z,100665.81
2022-08-14T00:39:51.141Z,100660.91
2022-08-14T00:42:52.836Z,100664.50
2022-08-14T00:45:11.373Z,100659.56
2022-08-14T00:47:43.196Z,100655.75
2022-08-14T00:50:17.649Z,100652.59
2022-08-14T00:52:51.215Z,100644.72
2022-08-14T00:55:19.926Z,100644.78
2022-08-14T00:58:07.949Z,100642.44
2022-08-14T01:00:37.266Z,100646.66
2022-08-14T01:03:17.448Z,100634.69
2022-08-14T01:05:51.692Z,100640.91
2022-08-14T01:08:51.114Z,100640.53
2022-08-14T01:11:08.132Z,100639.06
2022-08-14T01:13:42.526Z,100628.56
2022-08-14T01:16:14.926Z,100640.16
2022-08-14T01:19:02.324Z,100628.09
2022-08-14T01:21:47.110Z,100623.47
2022-08-14T01:24:22.995Z,100608.44
2022-08-14T01:27:00.176Z,100616.81
2022-08-14T01:29:58.201Z,100611.53
2022-08-14T01:32:23.325Z,100615.97
2022-08-14T01:35:18.128Z,100612.13
2022-08-14T01:37:56.531Z,100605.78
2022-08-14T01:40:36.672Z,100603.94
2022-08-14T01:43:14.693Z,100600.53
2022-08-14T01:45:42.328Z,100601.69
2022-08-14T01:48:13.756Z,100601.09
2022-08-14T01:50:41.828Z,100593.06
2022-08-14T01:53:09.521Z,100591.41
2022-08-14T01:55:38.820Z,100583.34
2022-08-14T01:58:19.870Z,100573.81
2022-08-14T02:00:55.156Z,100584.19
2022-08-14T02:03:30.812Z,100576.28
2022-08-14T02:05:59.547Z,100576.19
2022-08-14T02:08:34.784Z,100577.44
2022-08-14T02:11:22.283Z,100569.84
2022-08-14T02:14:10.085Z,100561.16
2022-08-14T02:16:43.872Z,100553.84
2022-08-14T02:19:15.709Z,100570.19
2022-08-14T02:21:48.981Z,100565.13
2022-08-14T02:24:39.466Z,100562.56
2022-08-14T02:28:22.183Z,100557.69
2022-08-14T02:29:59.190Z,100552.84
2022-08-14T02:32:30.675Z,100541.50
2022-08-14T02:35:10.155Z,100552.94
2022-08-14T02:37:47.239Z,100544.16
2022-08-14T02:40:15.605Z,100549.81
2022-08-14T02:42:54.779Z,100548.03
2022-08-14T02:45:32.934Z,100539.97
2022-08-14T02:48:03.144Z,100548.25
2022-08-14T02:50:29.735Z,100543.41
2022-08-14T02:53:02.993Z,100533.31
2022-08-14T02:55:30.986Z,100526.53
2022-08-14T02:58:03.290Z,100530.00
2022-08-14T03:00:33.000Z,100524.31
2022-08-14T03:03:01.054Z,100530.41
2022-08-14T03:05:33.135Z,100524.41
2022-08-14T03:08:08.124Z,100515.66
2022-08-14T03:10:34.767Z,100515.66
2022-08-14T03:13:04.378Z,100511.25
2022-08-14T03:15:33.148Z,100513.50
2022-08-14T03:18:00.953Z,100506.22
2022-08-14T03:20:29.257Z,100504.75
2022-08-14T03:22:59.325Z,100505.53
2022-08-14T03:25:26.959Z,100498.41
2022-08-14T03:27:58.704Z,100500.22
2022-08-14T03:30:39.014Z,100495.59
2022-08-14T03:33:10.657Z,100496.63
2022-08-14T03:35:40.339Z,100497.53
2022-08-14T03:39:13.230Z,100493.25
2022-08-14T03:41:17.156Z,100480.06
2022-08-14T03:43:44.702Z,100493.91
2022-08-14T03:46:52.139Z,100482.91
2022-08-14T03:49:01.328Z,100475.88
2022-08-14T03:51:29.894Z,100482.19
2022-08-14T03:53:57.885Z,100473.72
2022-08-14T03:56:26.606Z,100481.84
2022-08-14T03:58:57.488Z,100476.44
2022-08-14T04:01:29.314Z,100475.19
2022-08-14T04:04:07.808Z,100464.38
2022-08-14T04:06:45.232Z,100464.38
2022-08-14T04:09:14.575Z,100458.63
2022-08-14T04:11:43.874Z,100455.75
2022-08-14T04:14:10.395Z,100466.81
2022-08-14T04:16:48.066Z,100459.97
2022-08-14T04:19:23.804Z,100460.78
2022-08-14T04:22:03.266Z,100465.84
2022-08-14T04:24:37.804Z,100464.03
2022-08-14T04:27:10.377Z,100454.31
2022-08-14T04:29:42.609Z,100457.88
2022-08-14T04:33:10.254Z,100457.00
2022-08-14T04:34:58.873Z,100463.38
2022-08-14T04:37:45.480Z,100460.53
2022-08-14T04:40:32.245Z,100463.25
2022-08-14T04:43:18.104Z,100456.91
2022-08-14T04:45:45.402Z,100454.03
2022-08-14T04:48:39.460Z,100462.31
2022-08-14T04:51:07.587Z,100463.25
2022-08-14T04:53:43.258Z,100457.94
2022-08-14T04:56:31.457Z,100467.53
2022-08-14T04:59:10.679Z,100463.38
2022-08-14T05:01:47.651Z,100463.59
2022-08-14T05:04:20.173Z,100471.13
2022-08-14T05:06:49.059Z,100464.97
2022-08-14T05:09:16.231Z,100472.66
2022-08-14T05:11:44.616Z,100470.28
2022-08-14T05:14:17.326Z,100470.81
2022-08-14T05:17:01.792Z,100467.06
2022-08-14T05:22:16.720Z,100465.50
2022-08-14T05:24:48.771Z,100462.75
2022-08-14T05:27:19.843Z,100470.53
2022-08-14T05:29:49.054Z,100464.09
2022-08-14T05:32:16.353Z,100467.09
2022-08-14T05:34:45.786Z,100460.81
2022-08-14T05:37:15.408Z,100464.88
2022-08-14T05:39:43.008Z,100461.84
2022-08-14T05:42:09.976Z,100462.31
2022-08-14T05:44:48.129Z,100462.22
2022-08-14T05:47:16.034Z,100460.59
2022-08-14T05:49:43.701Z,100455.84
2022-08-14T05:52:10.709Z,100464.53
2022-08-14T05:54:44.514Z,100459.13
2022-08-14T05:57:11.014Z,100464.00
2022-08-14T05:59:39.892Z,100461.06
2022-08-14T06:02:10.995Z,100452.19
2022-08-14T06:04:39.378Z,100461.97
2022-08-14T06:07:06.874Z,100454.00
2022-08-14T06:09:36.025Z,100462.91
2022-08-14T06:12:10.667Z,100450.16
2022-08-14T06:14:39.303Z,100457.88
2022-08-14T06:17:07.192Z,100455.22
2022-08-14T06:19:33.743Z,100447.78
2022-08-14T06:22:00.267Z,100432.66
2022-08-14T06:24:30.457Z,100449.34
2022-08-14T06:27:04.267Z,100452.09
2022-08-14T06:29:34.695Z,100439.31
2022-08-14T06:32:37.528Z,100444.59
2022-08-14T06:35:03.291Z,100447.25
2022-08-14T06:37:52.284Z,100440.16
2022-08-14T06:40:28.421Z,100454.41
2022-08-14T06:43:03.733Z,100450.97
2022-08-14T06:45:35.148Z,100447.50
2022-08-14T06:48:06.212Z,100448.03
2022-08-14T06:50:39.685Z,100439.78
2022-08-14T06:53:07.287Z,100436.50
2022-08-14T06:55:34.419Z,100437.50
2022-08-14T06:58:04.277Z,100442.66
2022-08-14T07:00:32.637Z,100441.31
2022-08-14T07:03:19.424Z,100444.47
2022-08-14T07:05:55.402Z,100428.81
2022-08-14T07:08:31.601Z,100436.13
2022-08-14T07:11:03.909Z,100440.31
2022-08-14T07:13:31.029Z,100425.06
2022-08-14T07:15:59.198Z,100424.28
2022-08-14T07:18:33.243Z,100419.03
2022-08-14T07:21:01.478Z,100418.81
2022-08-14T07:23:28.213Z,100427.59
2022-08-14T07:26:00.151Z,100432.81
2022-08-14T07:28:29.886Z,100433.88
2022-08-14T07:31:04.835Z,100420.00
2022-08-14T07:33:41.937Z,100422.19
2022-08-14T07:36:27.204Z,100423.38
2022-08-14T07:39:00.588Z,100415.13
2022-08-14T07:41:33.671Z,100407.66
2022-08-14T07:44:29.243Z,100411.06
2022-08-14T07:46:50.212Z,100414.97
2022-08-14T07:49:17.777Z,100413.09
2022-08-14T07:51:45.306Z,100424.06
2022-08-14T07:54:12.251Z,100415.28
2022-08-14T07:56:44.482Z,100408.63
2022-08-14T07:59:18.013Z,100408.75
2022-08-14T08:01:51.338Z,100416.34
2022-08-14T08:04:24.088Z,100419.47
2022-08-14T08:06:52.385Z,100406.22
2022-08-14T08:09:23.817Z,100413.34
2022-08-14T08:11:54.587Z,100406.78
2022-08-14T08:14:25.265Z,100402.25
2022-08-14T08:16:53.958Z,100405.56
2022-08-14T08:19:20.531Z,100406.94
2022-08-14T08:21:48.014Z,100410.44
2022-08-14T08:24:19.721Z,100418.94
2022-08-14T08:26:50.380Z,100409.16
2022-08-14T08:29:22.471Z,100400.16
2022-08-14T08:31:55.452Z,100392.72
2022-08-14T08:34:23.713Z,100384.63
2022-08-14T08:36:51.540Z,100391.66
2022-08-14T08:39:22.002Z,100381.00
2022-08-14T08:41:53.374Z,100371.69
2022-08-14T08:44:32.570Z,100382.91
2022-08-14T08:47:05.426Z,100371.06
2022-08-14T08:49:41.994Z,100370.47
2022-08-14T08:52:15.199Z,100352.84
2022-08-14T08:54:55.789Z,100354.72
2022-08-14T08:57:22.369Z,100347.16
2022-08-14T08:59:54.848Z,100350.66
2022-08-14T09:02:22.684Z,100344.34
2022-08-14T09:05:02.257Z,100322.88
2022-08-14T09:07:28.943Z,100329.16
2022-08-14T09:10:00.073Z,100329.97
2022-08-14T09:12:33.459Z,100337.06
2022-08-14T09:15:12.204Z,100336.88
2022-08-14T09:17:41.344Z,100336.09
2022-08-14T09:20:11.596Z,100336.09
2022-08-14T09:22:42.392Z,100315.69
2022-08-14T09:25:15.362Z,100317.22
2022-08-14T09:27:42.317Z,100322.75
2022-08-14T09:30:30.661Z,100324.94
2022-08-14T09:33:11.021Z,100329.63
2022-08-14T09:35:39.200Z,100318.44
2022-08-14T09:38:25.819Z,100322.78
2022-08-14T09:42:21.075Z,100323.63
2022-08-14T09:44:27.546Z,100321.16
2022-08-14T09:46:57.943Z,100318.56
2022-08-14T09:49:39.969Z,100308.41
2022-08-14T09:52:32.953Z,100313.56
2022-08-14T09:54:59.376Z,100317.84
2022-08-14T09:57:28.957Z,100311.28
2022-08-14T09:59:55.890Z,100307.03
2022-08-14T10:02:27.990Z,100304.53
2022-08-14T10:05:10.030Z,100298.19
2022-08-14T10:07:53.863Z,100289.75
2022-08-14T10:10:39.497Z,100301.38
2022-08-14T10:13:21.595Z,100305.38
2022-08-14T10:15:51.343Z,100300.44
2022-08-14T10:18:20.223Z,100291.72
2022-08-14T10:20:58.269Z,100286.06
2022-08-14T10:23:27.877Z,100282.00
2022-08-14T10:26:06.588Z,100288.44
2022-08-14T10:29:18.183Z,100276.63
2022-08-14T10:31:44.519Z,100267.41
2022-08-14T10:34:14.184Z,100264.00
2022-08-14T10:36:47.510Z,100264.00
2022-08-14T10:39:27.693Z,100259.59
2022-08-14T10:42:18.336Z,100258.84
2022-08-14T10:44:52.347Z,100255.56
2022-08-14T10:47:41.287Z,100246.91
2022-08-14T10:50:07.803Z,100251.28
2022-08-14T10:52:42.407Z,100253.78
2022-08-14T10:55:16.045Z,100249.38
2022-08-14T10:57:53.670Z,100247.56
2022-08-14T11:00:30.268Z,100245.50
2022-08-14T11:03:02.872Z,100232.34
2022-08-14T11:05:43.794Z,100237.25
2022-08-14T11:08:12.928Z,100230.53
2022-08-14T11:10:43.932Z,100234.91
2022-08-14T11:13:16.391Z,100232.06
2022-08-14T11:15:45.134Z,100225.88
2022-08-14T11:18:20.467Z,100212.09
2022-08-14T11:20:59.741Z,100210.72
2022-08-14T11:23:38.479Z,100212.47
2022-08-14T11:26:08.696Z,100210.25
2022-08-14T11:28:48.144Z,100209.75
2022-08-14T11:31:19.739Z,100200.16
2022-08-14T11:33:58.254Z,100203.91
2022-08-14T11:36:35.400Z,100198.31
2022-08-14T11:39:23.153Z,100190.03
2022-08-14T11:42:55.541Z,100177.53
2022-08-14T11:44:53.892Z,100175.34
2022-08-14T11:47:26.902Z,100186.63
2022-08-14T11:50:13.276Z,100181.72
2022-08-14T11:52:40.571Z,100172.63
2022-08-14T11:55:13.524Z,100172.53
2022-08-14T11:57:41.850Z,100172.06
2022-08-14T12:00:19.501Z,100164.59
2022-08-14T12:03:03.331Z,100171.38
2022-08-14T12:05:33.728Z,100170.00
2022-08-14T12:08:11.899Z,100148.69
2022-08-14T12:10:43.510Z,100156.72
2022-08-14T12:13:19.110Z,100149.97
2022-08-14T12:15:58.687Z,100141.25
2022-08-14T12:18:33.003Z,100146.31
2022-08-14T12:21:21.214Z,100142.63
2022-08-14T12:24:08.412Z,100147.81
2022-08-14T12:26:40.520Z,100134.75
2022-08-14T12:29:16.222Z,100140.16
2022-08-14T12:31:46.805Z,100134.75
2022-08-14T12:34:20.028Z,100131.47
2022-08-14T12:36:47.539Z,100129.47
2022-08-14T12:39:23.757Z,100130.66
2022-08-14T12:41:56.919Z,100130.72
2022-08-14T12:44:38.452Z,100128.00
2022-08-14T12:47:29.499Z,100114.16
2022-08-14T12:49:57.490Z,100115.34
2022-08-14T12:52:56.052Z,100123.81
2022-08-14T12:56:18.825Z,100118.13
2022-08-14T12:58:35.254Z,100113.56
2022-08-14T13:01:23.097Z,100107.50
2022-08-14T13:03:51.831Z,100112.34
2022-08-14T13:06:20.353Z,100105.31
2022-08-14T13:08:53.232Z,100100.69
2022-08-14T13:11:23.739Z,100095.81
2022-08-14T13:13:57.889Z,100101.97
2022-08-14T13:16:37.977Z,100092.50
2022-08-14T13:19:11.698Z,100084.97
2022-08-14T13:22:05.105Z,100092.56
2022-08-14T13:24:27.907Z,100089.53
2022-08-14T13:26:58.256Z,100087.00
2022-08-14T13:29:31.404Z,100072.75
2022-08-14T13:31:58.486Z,100070.34
2022-08-14T13:34:28.024Z,100070.06
2022-08-14T13:36:59.264Z,100068.09
2022-08-14T13:39:31.432Z,100043.06
2022-08-14T13:42:13.389Z,100050.66
2022-08-14T13:44:42.951Z,100046.50
2022-08-14T13:47:10.923Z,100045.63
2022-08-14T13:49:40.423Z,100036.88
2022-08-14T13:52:51.338Z,100025.66
2022-08-14T13:55:15.548Z,100014.84
2022-08-14T13:57:49.418Z,100014.13
2022-08-14T14:00:32.536Z,100013.00
2022-08-14T14:03:00.082Z,100014.25
2022-08-14T14:05:52.184Z,100012.94
2022-08-14T14:08:18.901Z,100012.91
2022-08-14T14:11:02.353Z,100000.66
2022-08-14T14:13:31.052Z,99978.97
2022-08-14T14:16:02.760Z,99988.03
2022-08-14T14:18:34.701Z,99978.69
2022-08-14T14:21:02.704Z,99973.06
2022-08-14T14:23:30.052Z,99967.19
2022-08-14T14:25:57.684Z,99966.75
2022-08-14T14:28:31.282Z,99961.47
2022-08-14T14:31:01.325Z,99949.97
2022-08-14T14:33:47.353Z,99936.22
2022-08-14T14:36:21.429Z,99933.75
2022-08-14T14:38:57.970Z,99936.97
2022-08-14T14:41:38.487Z,99939.97
2022-08-14T14:44:13.638Z,99935.81
2022-08-14T14:46:49.452Z,99953.25
2022-08-14T14:49:21.753Z,99943.63
2022-08-14T14:51:51.543Z,99942.22
2022-08-14T14:54:31.183Z,99932.28
2022-08-14T14:57:00.156Z,99928.16
2022-08-14T14:59:29.652Z,99931.44
2022-08-14T15:02:08.210Z,99919.63
2022-08-14T15:04:38.317Z,99925.31
2022-08-14T15:07:06.527Z,99919.06
2022-08-14T15:09:36.152Z,99928.13
2022-08-14T15:12:16.149Z,99924.34
2022-08-14T15:14:55.460Z,99923.88
2022-08-14T15:17:24.933Z,99917.97
2022-08-14T15:19:56.708Z,99918.69
2022-08-14T15:22:25.171Z,99910.56
2022-08-14T15:24:52.003Z,99908.28
2022-08-14T15:27:26.385Z,99906.75
2022-08-14T15:29:53.538Z,99893.94
2022-08-14T15:32:23.261Z,99906.00
2022-08-14T15:34:51.894Z,99920.88
2022-08-14T15:37:22.909Z,99915.34
2022-08-14T15:39:50.653Z,99906.88
2022-08-14T15:42:22.977Z,99899.34
2022-08-14T15:44:57.831Z,99899.16
2022-08-14T15:47:31.708Z,99900.50
2022-08-14T15:50:01.570Z,99887.28
2022-08-14T15:52:32.851Z,99890.59
2022-08-14T15:55:15.305Z,99890.44
2022-08-14T15:58:01.529Z,99891.28
2022-08-14T16:00:51.948Z,99900.63
2022-08-14T16:03:27.813Z,99886.47
2022-08-14T16:06:19.789Z,99888.44
2022-08-14T16:08:50.310Z,99887.31
2022-08-14T16:11:25.769Z,99890.00
2022-08-14T16:13:57.719Z,99895.47
2022-08-14T16:16:48.089Z,99884.88
2022-08-14T16:19:18.863Z,99887.50
2022-08-14T16:24:35.794Z,99881.28
2022-08-14T16:27:07.522Z,99879.78
2022-08-14T16:29:37.977Z,99878.78
2022-08-14T16:32:32.108Z,99877.06
2022-08-14T16:34:55.743Z,99872.19
2022-08-14T16:37:23.480Z,99880.69
2022-08-14T16:39:59.396Z,99871.25
2022-08-14T16:40:24.105Z,99878.44
2022-08-14T16:42:38.864Z,99867.88
2022-08-14T16:45:17.804Z,99862.69
2022-08-14T16:47:44.651Z,99863.25
2022-08-14T16:50:15.225Z,99857.44
2022-08-14T16:53:01.956Z,99856.19
2022-08-14T16:55:33.986Z,99860.59
2022-08-14T16:58:21.169Z,99856.81
2022-08-14T17:00:53.824Z,99843.72
2022-08-14T17:03:20.554Z,99837.63
2022-08-14T17:05:48.191Z,99852.00
2022-08-14T17:08:32.888Z,99847.59
2022-08-14T17:11:10.807Z,99845.41
2022-08-14T17:13:59.169Z,99842.50
2022-08-14T17:16:38.929Z,99837.91
2022-08-14T17:19:09.692Z,99837.38
2022-08-14T17:21:41.069Z,99841.41
2022-08-14T17:24:57.289Z,99834.63
2022-08-14T17:27:03.927Z,99824.56
2022-08-14T17:29:54.554Z,99823.28
2022-08-14T17:35:16.563Z,99816.03
2022-08-14T17:37:46.139Z,99824.47
2022-08-14T17:40:16.586Z,99828.19
2022-08-14T17:42:53.435Z,99829.31
2022-08-14T17:45:43.190Z,99833.66
2022-08-14T17:49:14.373Z,99831.56
2022-08-14T17:51:17.021Z,99829.13
2022-08-14T17:54:01.262Z,99824.03
2022-08-14T17:56:31.008Z,99818.16
2022-08-14T17:59:06.890Z,99830.84
2022-08-14T18:01:45.608Z,99830.69
2022-08-14T18:04:24.901Z,99828.44
2022-08-14T18:07:50.524Z,99827.13
2022-08-14T18:09:59.087Z,99830.44
2022-08-14T18:12:37.194Z,99827.00
2022-08-14T18:15:14.746Z,99841.28
2022-08-14T18:17:52.521Z,99833.88
2022-08-14T18:21:25.504Z,99840.88
2022-08-14T18:23:13.700Z,99837.22
2022-08-14T18:25:54.501Z,99835.38
2022-08-14T18:28:48.401Z,99841.00
2022-08-14T18:31:21.031Z,99839.28
2022-08-14T18:33:55.204Z,99838.84
2022-08-14T18:36:48.475Z,99840.84
2022-08-14T18:40:01.267Z,99834.63
2022-08-14T18:42:32.964Z,99828.66
2022-08-14T18:45:01.620Z,99840.38
2022-08-14T18:48:03.386Z,99827.31
2022-08-14T18:50:27.495Z,99836.63
2022-08-14T18:53:09.002Z,99832.50
2022-08-14T18:55:37.172Z,99827.63
2022-08-14T18:58:27.892Z,99828.75
2022-08-14T19:01:02.123Z,99828.13
2022-08-14T19:03:34.283Z,99828.97
2022-08-14T19:06:08.992Z,99830.06
2022-08-14T19:08:45.420Z,99829.00
2022-08-14T19:11:34.285Z,99832.50
2022-08-14T19:14:05.082Z,99833.00
2022-08-14T19:16:36.776Z,99823.25
2022-08-14T19:19:08.666Z,99829.72
2022-08-14T19:21:55.105Z,99829.34
2022-08-14T19:24:34.090Z,99835.25
2022-08-14T19:27:23.733Z,99828.19
2022-08-14T19:30:20.146Z,99826.69
2022-08-14T19:32:50.769Z,99829.97
2022-08-14T19:35:22.768Z,99829.63
2022-08-14T19:37:56.193Z,99821.06
2022-08-14T19:40:39.936Z,99825.16
2022-08-14T19:43:09.281Z,99827.25
2022-08-14T19:45:37.828Z,99825.81
2022-08-14T19:48:12.435Z,99819.50
2022-08-14T19:50:41.287Z,99822.91
2022-08-14T19:53:17.393Z,99819.72
2022-08-14T19:55:58.782Z,99829.41
2022-08-14T19:58:55.071Z,99821.00
2022-08-14T20:01:37.004Z,99833.97
2022-08-14T20:04:46.327Z,99828.09
2022-08-14T20:06:57.506Z,99829.31
2022-08-14T20:11:07.733Z,99837.28
2022-08-14T20:12:29.251Z,99835.22
2022-08-14T20:15:08.800Z,99824.47
2022-08-14T20:17:44.443Z,99835.28
2022-08-14T20:20:30.698Z,99839.56
2022-08-14T20:23:02.122Z,99837.97
2022-08-14T20:25:56.677Z,99830.09
2022-08-14T20:28:31.729Z,99831.75
2022-08-14T20:31:17.785Z,99813.41
2022-08-14T20:34:07.948Z,99828.16
2022-08-14T20:36:46.032Z,99832.91
2022-08-14T20:39:15.390Z,99829.66
2022-08-14T20:41:51.033Z,99832.44
2022-08-14T20:44:41.201Z,99828.81
2022-08-14T20:47:15.043Z,99826.88
2022-08-14T20:49:41.625Z,99826.78
2022-08-14T20:52:18.908Z,99824.13
2022-08-14T20:54:50.702Z,99826.34
2022-08-14T20:57:18.845Z,99824.78
2022-08-14T20:59:50.121Z,99818.13
2022-08-14T21:02:34.476Z,99822.72
2022-08-14T21:05:17.372Z,99813.22
2022-08-14T21:07:50.953Z,99805.16
2022-08-14T21:10:33.836Z,99805.38
2022-08-14T21:14:08.889Z,99807.81
2022-08-14T21:15:56.626Z,99803.94
2022-08-14T21:18:25.055Z,99806.50
2022-08-14T21:20:56.761Z,99796.75
2022-08-14T21:23:23.346Z,99803.03
2022-08-14T21:25:50.421Z,99801.56
2022-08-14T21:28:30.142Z,99800.44
2022-08-14T21:30:57.843Z,99801.28
2022-08-14T21:33:25.031Z,99797.38
2022-08-14T21:35:54.862Z,99794.81
2022-08-14T21:38:33.490Z,99801.94
2022-08-14T21:41:43.434Z,99802.47
2022-08-14T21:44:18.346Z,99794.38
2022-08-14T21:46:53.983Z,99797.81
2022-08-14T21:49:34.138Z,99805.53
2022-08-14T21:52:50.894Z,99796.13
2022-08-14T21:55:08.714Z,99802.41
2022-08-14T21:58:46.390Z,99802.59
2022-08-14T22:00:36.562Z,99802.03
2022-08-14T22:03:10.681Z,99793.84
2022-08-14T22:05:41.797Z,99795.13
2022-08-14T22:08:12.449Z,99787.50
2022-08-14T22:10:42.486Z,99787.06
2022-08-14T22:13:12.069Z,99780.31
2022-08-14T22:15:43.915Z,99786.31
2022-08-14T22:18:20.631Z,99781.34
2022-08-14T22:20:53.743Z,99786.50
2022-08-14T22:23:21.641Z,99782.63
2022-08-14T22:25:51.078Z,99775.47
2022-08-14T22:28:25.324Z,99777.19
2022-08-14T22:30:55.032Z,99783.44
2022-08-14T22:33:30.977Z,99783.72
2022-08-14T22:35:59.319Z,99785.53
2022-08-14T22:38:37.669Z,99783.72
2022-08-14T22:41:28.037Z,99786.22
2022-08-14T22:43:54.720Z,99778.50
2022-08-14T22:46:21.738Z,99773.06
2022-08-14T22:48:49.354Z,99782.09
2022-08-14T22:51:18.888Z,99778.41
2022-08-14T22:53:48.677Z,99777.47
2022-08-14T22:56:21.150Z,99787.81
2022-08-14T22:58:53.509Z,99780.03
2022-08-14T23:01:56.920Z,99768.53
2022-08-14T23:04:35.608Z,99778.22
2022-08-14T23:07:22.085Z,99777.53
2022-08-14T23:09:56.251Z,99783.63
2022-08-14T23:12:28.396Z,99775.19
2022-08-14T23:14:56.199Z,99789.16
2022-08-14T23:17:22.762Z,99781.53
2022-08-14T23:19:49.309Z,99775.06
2022-08-14T23:22:24.272Z,99770.78
2022-08-14T23:24:53.085Z,99768.03
2022-08-14T23:27:32.055Z,99769.44
2022-08-14T23:30:33.957Z,99761.53
2022-08-14T23:33:03.084Z,99763.31
2022-08-14T23:35:32.996Z,99765.72
2022-08-14T23:38:05.478Z,99767.78
2022-08-14T23:40:34.476Z,99766.66
2022-08-14T23:43:09.572Z,99762.28
2022-08-14T23:45:40.821Z,99752.19
2022-08-14T23:48:12.407Z,99747.94
2022-08-14T23:50:41.789Z,99752.84
2022-08-14T23:53:47.299Z,99746.44
2022-08-14T23:56:18.431Z,99739.91
2022-08-14T23:58:49.285Z,99743.16
